Time;durP1;ratioP1;P1;durP2;ratioP2;P2;SDS_P1;SDS_P2;PMS_P1;PMS_P2;Temp;Humidity;BMP_temperature;BMP_pressure;BME280_temperature;BME280_humidity;BME280_pressure;Samples;Min_cycle;Max_cycle;Signal;HPM_P1;HPM_P2
2022/10/05 00:00:53;;;;;;;9.23;7.40;;;11.50;99.90;;;;;;5031210;28;20421;-66
2022/10/05 00:03:21;;;;;;;9.27;6.87;;;11.40;99.90;;;;;;5031633;28;20409;-66
2022/10/05 00:05:47;;;;;;;14.67;7.70;;;11.40;99.90;;;;;;5032004;28;20517;-65
2022/10/05 00:08:20;;;;;;;10.53;7.73;;;11.30;99.90;;;;;;5031299;28;20472;-65
2022/10/05 00:10:46;;;;;;;11.80;7.20;;;11.30;99.90;;;;;;5031266;28;20527;-65
2022/10/05 00:13:20;;;;;;;9.63;6.70;;;11.30;99.90;;;;;;5031751;28;20497;-67
2022/10/05 00:15:47;;;;;;;8.27;6.83;;;11.20;99.90;;;;;;5031827;28;20986;-67
2022/10/05 00:18:19;;;;;;;9.20;6.37;;;11.30;99.90;;;;;;5031282;28;20404;-66
2022/10/05 00:20:46;;;;;;;7.70;6.90;;;11.30;99.90;;;;;;5031105;28;20498;-67
2022/10/05 00:23:20;;;;;;;8.60;7.43;;;11.30;99.90;;;;;;5031262;28;20902;-66
2022/10/05 00:25:45;;;;;;;7.63;6.90;;;11.20;99.90;;;;;;5031666;28;20433;-67
2022/10/05 00:28:29;;;;;;;9.03;7.70;;;11.20;99.90;;;;;;5031497;28;20410;-66
2022/10/05 00:30:56;;;;;;;8.30;7.47;;;11.10;99.90;;;;;;5030582;28;20199;-66
2022/10/05 00:33:22;;;;;;;14.27;7.57;;;11.20;99.90;;;;;;5029536;28;20911;-66
2022/10/05 00:35:48;;;;;;;8.70;7.23;;;11.20;99.90;;;;;;5031167;28;20425;-66
2022/10/05 00:38:14;;;;;;;9.13;7.37;;;11.20;99.90;;;;;;5031199;28;20406;-67
2022/10/05 00:41:04;;;;;;;8.40;7.30;;;11.20;99.90;;;;;;5030116;28;20216;-66
2022/10/05 00:43:56;;;;;;;12.73;7.43;;;11.20;99.90;;;;;;5030418;28;20175;-66
2022/10/05 00:46:26;;;;;;;15.00;7.53;;;11.30;99.90;;;;;;5031496;28;20406;-65
2022/10/05 00:49:00;;;;;;;8.93;7.57;;;11.30;99.90;;;;;;5030962;28;20526;-66
2022/10/05 00:51:34;;;;;;;16.87;7.73;;;11.20;99.90;;;;;;5030069;28;20453;-66
2022/10/05 00:54:31;;;;;;;7.27;6.50;;;11.20;99.90;;;;;;5030627;28;20472;-66
2022/10/05 00:56:56;;;;;;;8.40;6.90;;;11.30;99.90;;;;;;5031045;28;20399;-65
2022/10/05 00:59:28;;;;;;;11.93;7.00;;;11.20;99.90;;;;;;5029509;28;20987;-66
2022/10/05 01:02:18;;;;;;;12.90;7.53;;;11.30;99.90;;;;;;5030059;28;20187;-67
2022/10/05 01:04:58;;;;;;;10.60;7.30;;;11.30;99.90;;;;;;5030519;28;20785;-65
2022/10/05 01:07:38;;;;;;;10.40;7.67;;;11.30;99.90;;;;;;5030793;28;20406;-65
2022/10/05 01:10:33;;;;;;;13.70;8.03;;;11.30;99.90;;;;;;5030532;28;20811;-65
2022/10/05 01:13:31;;;;;;;17.17;8.17;;;11.30;99.90;;;;;;5030713;28;20421;-65
2022/10/05 01:16:13;;;;;;;12.30;8.67;;;11.20;1.00;;;;;;5030845;28;20422;-65
2022/10/05 01:18:57;;;;;;;9.83;6.90;;;11.00;1.00;;;;;;5030539;28;20881;-65
2022/10/05 01:21:29;;;;;;;11.40;8.13;;;11.10;1.00;;;;;;5029660;28;20410;-65
2022/10/05 01:24:19;;;;;;;14.13;7.63;;;11.10;1.00;;;;;;5030181;28;20484;-65
2022/10/05 01:27:12;;;;;;;8.73;7.00;;;11.20;1.00;;;;;;5030355;28;20398;-65
2022/10/05 01:29:46;;;;;;;7.60;6.47;;;11.10;1.00;;;;;;5029778;28;20513;-65
2022/10/05 01:32:37;;;;;;;14.63;6.07;;;11.10;1.00;;;;;;5029115;28;20522;-66
2022/10/05 01:35:11;;;;;;;12.90;7.20;;;10.90;1.00;;;;;;5030272;28;20529;-65
2022/10/05 01:38:27;;;;;;;7.33;5.77;;;10.90;1.00;;;;;;5030472;28;20397;-65
2022/10/05 01:41:02;;;;;;;8.90;6.70;;;11.00;1.00;;;;;;5026733;28;20572;-66
2022/10/05 01:43:39;;;;;;;10.33;6.30;;;11.00;1.00;;;;;;5029274;28;20417;-65
2022/10/05 01:46:29;;;;;;;7.10;6.10;;;11.00;1.00;;;;;;5030340;28;20497;-67
2022/10/05 01:49:10;;;;;;;10.60;7.80;;;11.00;1.00;;;;;;5030293;28;20496;-67
2022/10/05 01:52:04;;;;;;;7.30;6.60;;;11.00;1.00;;;;;;5029016;28;20457;-66
2022/10/05 01:54:56;;;;;;;8.90;7.63;;;11.00;1.00;;;;;;5029652;28;20882;-66
2022/10/05 01:57:42;;;;;;;8.50;7.33;;;11.10;1.00;;;;;;5029808;28;20433;-66
2022/10/05 02:00:13;;;;;;;7.90;7.10;;;11.00;1.00;;;;;;5029616;28;20426;-66
2022/10/05 02:02:44;;;;;;;15.67;8.33;;;11.00;1.00;;;;;;5029633;28;20490;-66
2022/10/05 02:05:23;;;;;;;11.17;7.20;;;10.90;1.00;;;;;;5029744;28;20418;-65
2022/10/05 02:08:02;;;;;;;15.70;8.47;;;10.90;1.00;;;;;;5029787;28;20440;-66
2022/10/05 02:10:37;;;;;;;9.57;8.00;;;10.80;1.00;;;;;;5029239;28;20536;-67
2022/10/05 02:13:14;;;;;;;12.40;9.97;;;10.80;1.00;;;;;;5033690;28;20429;-67
2022/10/05 02:15:47;;;;;;;11.87;9.60;;;10.90;1.00;;;;;;5033451;28;20509;-67
2022/10/05 02:18:18;;;;;;;11.23;9.60;;;10.90;1.00;;;;;;5033963;28;20937;-65
2022/10/05 02:20:46;;;;;;;14.43;9.47;;;10.90;1.00;;;;;;5032676;28;20402;-65
2022/10/05 02:23:24;;;;;;;9.43;8.43;;;10.90;1.00;;;;;;5033631;28;20895;-65
2022/10/05 02:25:51;;;;;;;10.50;9.30;;;10.80;1.00;;;;;;5033770;28;20922;-65
2022/10/05 02:28:35;;;;;;;14.10;10.37;;;10.80;1.00;;;;;;5033251;28;20434;-67
2022/10/05 02:31:36;;;;;;;15.50;9.20;;;10.80;1.00;;;;;;5032640;28;20454;-67
2022/10/05 02:34:24;;;;;;;10.90;8.80;;;10.90;1.00;;;;;;5031283;28;20417;-67
2022/10/05 02:37:13;;;;;;;12.87;8.03;;;11.00;1.00;;;;;;5033851;28;20469;-67
2022/10/05 02:40:08;;;;;;;11.57;8.03;;;10.90;1.00;;;;;;5033177;28;20466;-67
2022/10/05 02:43:18;;;;;;;9.40;7.37;;;10.80;1.00;;;;;;5032229;28;20411;-67
2022/10/05 02:46:21;;;;;;;8.87;8.07;;;10.70;1.00;;;;;;5032686;28;20449;-67
2022/10/05 02:48:58;;;;;;;8.03;6.43;;;10.50;1.00;;;;;;5033246;28;20497;-67
2022/10/05 02:51:50;;;;;;;9.70;7.50;;;10.60;1.00;;;;;;5032384;28;20540;-65
2022/10/05 02:54:33;;;;;;;10.13;6.33;;;10.50;99.90;;;;;;5032789;28;20462;-65
2022/10/05 02:57:18;;;;;;;14.37;7.03;;;10.40;1.00;;;;;;5033270;28;20420;-66
2022/10/05 03:00:02;;;;;;;6.77;6.17;;;10.60;1.00;;;;;;5032543;28;21092;-65
2022/10/05 03:02:45;;;;;;;10.10;6.53;;;10.60;1.00;;;;;;5032338;28;21097;-66
2022/10/05 03:05:19;;;;;;;9.00;6.73;;;10.50;1.00;;;;;;5031468;28;21039;-66
2022/10/05 03:08:01;;;;;;;8.37;5.90;;;10.50;1.00;;;;;;5032950;28;20879;-65
2022/10/05 03:10:35;;;;;;;10.93;7.00;;;10.50;1.00;;;;;;5032069;28;20414;-65
2022/10/05 03:13:19;;;;;;;8.50;7.10;;;10.50;1.00;;;;;;5033405;28;20941;-65
2022/10/05 03:15:48;;;;;;;17.03;7.40;;;10.60;1.00;;;;;;5033025;28;20495;-65
2022/10/05 03:18:26;;;;;;;13.73;8.43;;;10.70;1.00;;;;;;5032926;28;20452;-65
2022/10/05 03:21:03;;;;;;;19.27;7.43;;;10.70;1.00;;;;;;5031965;28;20414;-65
2022/10/05 03:23:57;;;;;;;9.60;7.00;;;10.70;1.00;;;;;;5031400;28;21031;-65
2022/10/05 03:26:35;;;;;;;12.00;6.37;;;10.60;1.00;;;;;;5032943;28;20501;-65
2022/10/05 03:29:14;;;;;;;8.47;6.87;;;10.50;1.00;;;;;;5031917;28;20417;-65
2022/10/05 03:32:12;;;;;;;9.80;8.10;;;10.40;1.00;;;;;;5031397;28;20458;-65
2022/10/05 03:35:04;;;;;;;9.50;8.60;;;10.30;1.00;;;;;;5030411;28;20529;-66
2022/10/05 03:37:48;;;;;;;11.27;8.27;;;10.30;1.00;;;;;;5031891;28;20708;-66
2022/10/05 03:40:13;;;;;;;12.17;7.97;;;10.30;1.00;;;;;;5031610;28;20406;-66
2022/10/05 03:43:06;;;;;;;11.13;7.63;;;10.30;1.00;;;;;;5031915;28;20410;-65
2022/10/05 03:45:47;;;;;;;10.83;8.57;;;10.40;1.00;;;;;;5031666;28;20329;-66
2022/10/05 03:48:26;;;;;;;8.00;6.67;;;10.40;1.00;;;;;;5032059;28;20398;-66
2022/10/05 03:51:01;;;;;;;8.40;7.50;;;10.40;1.00;;;;;;5030981;28;20457;-65
2022/10/05 03:53:33;;;;;;;7.70;7.00;;;10.40;1.00;;;;;;5031774;28;20402;-65
2022/10/05 03:56:13;;;;;;;8.63;7.73;;;10.40;1.00;;;;;;5032384;28;20502;-65
2022/10/05 03:58:59;;;;;;;10.33;7.93;;;10.30;1.00;;;;;;5031512;28;21056;-66
2022/10/05 04:01:34;;;;;;;9.47;7.97;;;10.30;1.00;;;;;;5031181;28;20727;-66
2022/10/05 04:04:03;;;;;;;10.73;8.53;;;10.30;1.00;;;;;;5031600;28;20878;-66
2022/10/05 04:06:34;;;;;;;15.20;9.90;;;10.40;1.00;;;;;;5032088;28;20421;-66
2022/10/05 04:09:31;;;;;;;33.63;12.67;;;10.40;1.00;;;;;;5031627;28;20403;-66
2022/10/05 04:12:24;;;;;;;24.80;10.20;;;10.40;1.00;;;;;;5021566;28;20462;-66
2022/10/05 04:14:56;;;;;;;14.33;10.33;;;10.40;1.00;;;;;;5010910;28;20813;-66
2022/10/05 04:17:39;;;;;;;18.93;9.87;;;10.40;1.00;;;;;;5014851;28;20415;-66
2022/10/05 04:20:21;;;;;;;25.93;10.87;;;10.40;1.00;;;;;;5022708;28;20399;-66
2022/10/05 04:23:09;;;;;;;18.57;11.13;;;10.50;1.00;;;;;;5018785;28;20403;-66
2022/10/05 04:25:45;;;;;;;14.83;10.33;;;10.50;1.00;;;;;;5030334;28;20939;-66
2022/10/05 04:28:22;;;;;;;17.90;11.30;;;10.50;1.00;;;;;;5030797;28;20394;-67
2022/10/05 04:30:51;;;;;;;18.53;11.13;;;10.50;1.00;;;;;;5030576;28;20449;-67
2022/10/05 04:33:17;;;;;;;15.63;11.07;;;10.50;1.00;;;;;;5029399;28;20410;-67
2022/10/05 04:36:04;;;;;;;17.53;11.77;;;10.30;1.00;;;;;;5031203;28;20438;-67
2022/10/05 04:38:48;;;;;;;17.73;9.60;;;10.20;1.00;;;;;;5030924;28;20199;-65
2022/10/05 04:41:25;;;;;;;18.40;10.27;;;10.10;1.00;;;;;;5030404;28;20402;-65
2022/10/05 04:43:56;;;;;;;19.37;10.07;;;10.00;1.00;;;;;;5030287;28;20446;-65
2022/10/05 04:46:41;;;;;;;15.00;10.00;;;10.00;1.00;;;;;;5031184;28;20533;-65
2022/10/05 04:49:18;;;;;;;29.20;11.23;;;10.00;1.00;;;;;;5031271;28;20475;-65
2022/10/05 04:51:51;;;;;;;17.23;11.20;;;10.10;1.00;;;;;;5029829;28;21041;-65
2022/10/05 04:54:25;;;;;;;26.00;12.47;;;10.00;1.00;;;;;;5030540;28;20433;-65
2022/10/05 04:56:57;;;;;;;18.63;9.73;;;10.00;1.00;;;;;;5030577;28;20420;-65
2022/10/05 04:59:37;;;;;;;15.80;10.50;;;10.10;1.00;;;;;;5029484;28;20432;-66
2022/10/05 05:02:04;;;;;;;16.40;9.10;;;10.10;1.00;;;;;;5028563;28;20422;-67
2022/10/05 05:04:39;;;;;;;28.17;10.27;;;10.10;1.00;;;;;;5030248;28;20750;-67
2022/10/05 05:07:14;;;;;;;16.20;8.77;;;10.20;1.00;;;;;;5031923;28;20746;-67
2022/10/05 05:10:30;;;;;;;17.33;9.10;;;10.10;1.00;;;;;;5014406;28;20411;-67
2022/10/05 05:12:59;;;;;;;28.90;10.50;;;10.10;1.00;;;;;;4998333;28;20517;-65
2022/10/05 05:16:02;;;;;;;27.40;11.63;;;10.00;1.00;;;;;;5016045;28;20434;-65
2022/10/05 05:18:49;;;;;;;23.10;9.73;;;10.10;1.00;;;;;;5027823;28;20437;-66
2022/10/05 05:21:17;;;;;;;28.33;9.90;;;10.10;1.00;;;;;;5016858;28;20418;-66
2022/10/05 05:23:49;;;;;;;16.67;9.50;;;10.20;1.00;;;;;;5026525;28;20418;-67
2022/10/05 05:26:46;;;;;;;22.80;8.93;;;10.30;1.00;;;;;;5027229;28;20427;-67
2022/10/05 05:29:30;;;;;;;21.70;9.10;;;10.30;1.00;;;;;;5026555;28;20513;-66
2022/10/05 05:32:03;;;;;;;17.57;9.20;;;10.20;1.00;;;;;;5026504;28;20446;-67
2022/10/05 05:35:10;;;;;;;15.17;8.50;;;10.10;1.00;;;;;;5025209;28;20426;-65
2022/10/05 05:37:51;;;;;;;13.30;8.30;;;10.10;1.00;;;;;;5012779;28;20818;-65
2022/10/05 05:40:29;;;;;;;12.53;8.40;;;10.10;1.00;;;;;;5027159;28;20495;-66
2022/10/05 05:43:26;;;;;;;14.00;8.10;;;10.10;1.00;;;;;;5027722;28;20778;-66
2022/10/05 05:46:21;;;;;;;12.77;8.87;;;10.10;1.00;;;;;;5018052;28;20442;-64
2022/10/05 05:48:47;;;;;;;13.40;10.23;;;10.20;1.00;;;;;;5027249;28;20423;-66
2022/10/05 05:51:34;;;;;;;17.57;8.80;;;10.10;1.00;;;;;;5026078;28;20473;-67
2022/10/05 05:54:22;;;;;;;25.20;10.70;;;10.20;1.00;;;;;;5025390;28;20418;-67
2022/10/05 05:57:03;;;;;;;19.63;11.50;;;10.30;1.00;;;;;;5027066;28;20406;-67
2022/10/05 05:59:39;;;;;;;32.83;10.27;;;10.30;1.00;;;;;;5026267;28;20402;-65
2022/10/05 06:02:10;;;;;;;38.73;13.10;;;10.40;1.00;;;;;;5020915;28;21150;-66
2022/10/05 06:05:01;;;;;;;69.70;15.60;;;10.40;1.00;;;;;;5010252;28;20928;-66
2022/10/05 06:07:29;;;;;;;63.43;14.30;;;10.50;1.00;;;;;;5014123;28;20402;-66
2022/10/05 06:10:18;;;;;;;59.03;13.63;;;10.60;1.00;;;;;;5026683;28;20429;-66
2022/10/05 06:12:48;;;;;;;26.77;10.57;;;10.70;1.00;;;;;;5026596;28;20418;-66
2022/10/05 06:15:25;;;;;;;36.63;10.60;;;10.70;1.00;;;;;;5020915;28;20512;-66
2022/10/05 06:17:57;;;;;;;21.63;10.23;;;10.70;1.00;;;;;;5015503;28;20495;-65
2022/10/05 06:20:40;;;;;;;25.17;11.13;;;10.60;1.00;;;;;;5014231;28;20415;-65
2022/10/05 06:23:43;;;;;;;38.83;12.07;;;10.60;1.00;;;;;;5029305;28;20418;-66
2022/10/05 06:26:12;;;;;;;203.17;29.80;;;10.60;1.00;;;;;;5010379;28;20843;-66
2022/10/05 06:28:37;;;;;;;60.97;15.40;;;10.70;1.00;;;;;;5022719;28;20560;-66
2022/10/05 06:31:22;;;;;;;40.07;13.03;;;10.70;1.00;;;;;;5018721;28;20458;-66
2022/10/05 06:33:52;;;;;;;28.87;12.43;;;10.80;1.00;;;;;;5012578;28;20175;-64
2022/10/05 06:36:47;;;;;;;11.77;7.60;;;10.90;1.00;;;;;;5020604;28;20435;-64
2022/10/05 06:39:54;;;;;;;38.23;12.07;;;11.50;1.00;;;;;;5023902;28;20433;-66
2022/10/05 06:42:40;;;;;;;52.40;13.40;;;11.60;99.90;;;;;;5015309;28;20529;-66
2022/10/05 06:45:33;;;;;;;52.27;13.00;;;11.40;99.90;;;;;;5026812;28;20458;-66
2022/10/05 06:48:18;;;;;;;25.70;10.77;;;11.30;99.90;;;;;;5026404;28;20525;-66
2022/10/05 06:50:50;;;;;;;24.73;13.70;;;11.20;99.90;;;;;;5028248;28;20801;-66
2022/10/05 06:53:49;;;;;;;21.83;12.57;;;11.10;1.00;;;;;;5028681;28;20403;-66
2022/10/05 06:56:28;;;;;;;18.47;12.10;;;11.10;1.00;;;;;;5027470;28;20501;-66
2022/10/05 06:59:12;;;;;;;16.17;11.93;;;11.10;1.00;;;;;;5031250;28;20895;-68
2022/10/05 07:01:50;;;;;;;17.03;11.90;;;11.20;1.00;;;;;;5015677;28;20451;-66
2022/10/05 07:04:36;;;;;;;20.43;12.30;;;11.30;1.00;;;;;;5022318;28;20482;-66
2022/10/05 07:07:08;;;;;;;16.57;12.40;;;11.40;99.90;;;;;;5020382;28;20434;-66
2022/10/05 07:10:08;;;;;;;16.80;12.50;;;11.60;99.90;;;;;;5020532;28;20448;-66
2022/10/05 07:12:42;;;;;;;24.20;13.23;;;11.60;99.90;;;;;;5027941;28;20462;-67
2022/10/05 07:15:45;;;;;;;31.03;13.30;;;11.50;99.90;;;;;;5011949;28;20433;-66
2022/10/05 07:18:16;;;;;;;19.30;12.40;;;11.50;99.90;;;;;;5012487;28;20901;-66
2022/10/05 07:21:19;;;;;;;21.63;13.77;;;11.70;99.90;;;;;;5011449;28;20498;-66
2022/10/05 07:23:56;;;;;;;60.27;14.00;;;11.90;99.90;;;;;;5012087;28;20414;-66
2022/10/05 07:26:26;;;;;;;36.30;13.13;;;12.10;1.00;;;;;;5025142;28;20414;-67
2022/10/05 07:29:15;;;;;;;44.40;14.20;;;12.20;1.00;;;;;;5021496;28;20463;-67
2022/10/05 07:31:48;;;;;;;48.77;14.50;;;12.40;1.00;;;;;;5011215;28;20471;-67
2022/10/05 07:34:22;;;;;;;50.27;13.30;;;13.10;1.00;;;;;;5028414;28;20426;-67
2022/10/05 07:40:10;;;;;;;35.50;13.07;;;14.00;1.00;;;;;;5032062;28;20397;-67
2022/10/05 07:43:06;;;;;;;22.43;10.83;;;14.70;99.90;;;;;;5031319;28;20406;-66
2022/10/05 07:45:40;;;;;;;16.70;11.57;;;15.80;99.90;;;;;;5021959;28;20487;-67
2022/10/05 07:48:25;;;;;;;18.13;10.87;;;16.80;1.00;;;;;;5012018;28;20414;-67
2022/10/05 07:50:56;;;;;;;18.73;10.70;;;17.10;1.00;;;;;;5011299;28;20463;-67
2022/10/05 07:53:30;;;;;;;15.87;10.77;;;17.40;1.00;;;;;;5011923;28;20419;-67
2022/10/05 07:56:02;;;;;;;17.10;11.77;;;17.60;1.00;;;;;;5010862;28;20443;-67
2022/10/05 07:58:48;;;;;;;32.37;12.90;;;17.80;1.00;;;;;;5018302;28;20426;-67
2022/10/05 08:01:35;;;;;;;29.37;12.70;;;17.90;1.00;;;;;;5010948;28;20505;-67
2022/10/05 08:04:14;;;;;;;34.00;13.03;;;18.30;1.00;;;;;;5011595;28;20422;-67
2022/10/05 08:06:51;;;;;;;32.60;12.20;;;18.60;1.00;;;;;;5011986;28;20997;-67
2022/10/05 08:09:38;;;;;;;25.87;12.43;;;18.80;1.00;;;;;;5010926;28;20403;-67
2022/10/05 08:12:25;;;;;;;27.10;12.63;;;19.00;1.00;;;;;;5010834;28;20458;-67
2022/10/05 08:15:14;;;;;;;23.60;11.67;;;19.20;99.90;;;;;;5016125;28;20478;-67
2022/10/05 08:17:49;;;;;;;34.00;12.47;;;19.20;99.90;;;;;;5025969;28;20963;-67
2022/10/05 08:20:20;;;;;;;21.03;11.20;;;19.20;99.90;;;;;;5015386;28;20430;-67
2022/10/05 08:22:53;;;;;;;19.67;12.40;;;19.10;99.90;;;;;;5026495;28;20466;-67
2022/10/05 08:25:25;;;;;;;28.27;12.73;;;18.90;99.90;;;;;;5031227;28;20931;-67
2022/10/05 08:28:07;;;;;;;57.37;14.83;;;19.00;99.90;;;;;;5031278;28;20402;-68
2022/10/05 08:30:38;;;;;;;18.50;12.93;;;19.10;99.90;;;;;;5029548;28;20424;-67
2022/10/05 08:33:14;;;;;;;21.60;10.30;;;19.00;99.90;;;;;;5031394;28;20405;-67
2022/10/05 08:35:43;;;;;;;18.33;10.33;;;19.10;99.90;;;;;;5031196;28;20989;-67
2022/10/05 08:38:27;;;;;;;54.03;13.60;;;19.30;99.90;;;;;;5031030;28;20494;-66
2022/10/05 08:41:05;;;;;;;48.77;11.33;;;19.30;99.90;;;;;;5030165;28;20402;-66
2022/10/05 08:44:01;;;;;;;37.73;12.43;;;19.10;99.90;;;;;;5030197;28;20402;-66
2022/10/05 08:46:27;;;;;;;53.17;10.50;;;19.00;99.90;;;;;;5031060;28;20938;-66
2022/10/05 08:49:00;;;;;;;44.73;11.97;;;19.10;99.90;;;;;;5030354;28;20422;-66
2022/10/05 08:51:48;;;;;;;38.10;11.00;;;19.20;99.90;;;;;;5030101;28;20671;-67
2022/10/05 08:54:33;;;;;;;27.27;9.60;;;19.40;99.90;;;;;;5030654;28;20422;-66
2022/10/05 08:57:36;;;;;;;57.67;13.47;;;19.70;99.90;;;;;;5030312;28;20418;-66
2022/10/05 09:00:10;;;;;;;15.10;8.57;;;19.80;99.90;;;;;;5007419;28;20415;-66
2022/10/05 09:03:03;;;;;;;31.33;10.80;;;19.90;99.90;;;;;;5027200;28;20769;-66
2022/10/05 09:05:49;;;;;;;49.73;11.87;;;20.10;99.90;;;;;;5017352;28;20534;-66
2022/10/05 09:08:42;;;;;;;31.50;10.57;;;20.10;99.90;;;;;;5025650;28;20589;-66
2022/10/05 09:11:33;;;;;;;18.00;8.77;;;20.10;99.90;;;;;;5019382;28;20455;-66
2022/10/05 09:14:16;;;;;;;14.20;9.20;;;20.10;99.90;;;;;;5012924;28;20432;-66
2022/10/05 09:17:14;;;;;;;20.93;7.90;;;20.20;99.90;;;;;;5010906;28;20446;-66
2022/10/05 09:19:49;;;;;;;9.50;7.67;;;20.40;99.90;;;;;;5016348;28;20434;-66
2022/10/05 09:22:32;;;;;;;24.30;8.10;;;20.10;99.90;;;;;;5018819;28;20430;-66
2022/10/05 09:25:22;;;;;;;21.13;8.53;;;20.40;99.90;;;;;;5013116;28;20469;-67
2022/10/05 09:28:26;;;;;;;18.07;8.47;;;20.30;99.90;;;;;;5017090;28;20459;-66
2022/10/05 09:31:13;;;;;;;15.30;7.40;;;20.30;99.90;;;;;;4994917;28;20466;-67
2022/10/05 09:33:54;;;;;;;19.00;7.30;;;20.40;99.90;;;;;;5010444;28;20414;-67
2022/10/05 09:36:26;;;;;;;20.63;7.30;;;20.70;99.90;;;;;;5019914;28;20786;-66
2022/10/05 09:39:37;;;;;;;14.63;8.03;;;20.80;99.90;;;;;;5026225;28;20929;-67
2022/10/05 09:42:44;;;;;;;27.70;8.60;;;20.60;99.90;;;;;;5017199;28;20497;-67
2022/10/05 09:45:28;;;;;;;35.47;9.20;;;20.70;99.90;;;;;;5010846;28;20476;-67
2022/10/05 09:48:12;;;;;;;67.47;13.50;;;20.90;99.90;;;;;;5017069;28;20488;-67
2022/10/05 09:50:39;;;;;;;21.77;8.80;;;21.00;99.90;;;;;;5017280;28;20414;-66
2022/10/05 09:53:14;;;;;;;29.20;8.27;;;20.90;99.90;;;;;;5010407;28;20715;-67
2022/10/05 09:56:24;;;;;;;74.40;10.83;;;21.10;99.90;;;;;;5015502;28;20451;-67
2022/10/05 09:59:22;;;;;;;48.93;10.90;;;21.10;99.90;;;;;;5016693;28;20446;-66
2022/10/05 10:01:50;;;;;;;29.10;8.47;;;21.30;99.90;;;;;;5024756;28;20419;-66
2022/10/05 10:04:33;;;;;;;18.93;7.47;;;21.30;99.90;;;;;;5025422;28;20458;-67
2022/10/05 10:07:14;;;;;;;17.60;7.70;;;21.30;99.90;;;;;;5018232;28;20403;-67
2022/10/05 10:09:52;;;;;;;11.73;6.77;;;21.40;99.90;;;;;;5017956;28;20468;-67
2022/10/05 10:12:48;;;;;;;26.73;7.30;;;21.40;99.90;;;;;;5028399;28;20814;-67
2022/10/05 10:15:26;;;;;;;12.10;6.60;;;21.30;99.90;;;;;;5029001;28;20418;-67
2022/10/05 10:18:17;;;;;;;9.27;6.40;;;21.40;99.90;;;;;;5027600;28;20428;-67
2022/10/05 10:21:02;;;;;;;15.27;5.70;;;21.30;99.90;;;;;;5016890;28;20450;-67
2022/10/05 10:23:37;;;;;;;13.03;6.20;;;21.30;99.90;;;;;;5021075;28;20477;-67
2022/10/05 10:26:05;;;;;;;27.83;8.17;;;21.40;99.90;;;;;;5020267;28;20422;-67
2022/10/05 10:28:49;;;;;;;27.30;9.27;;;21.30;99.90;;;;;;5016516;28;20540;-66
2022/10/05 10:31:42;;;;;;;22.30;7.27;;;21.20;99.90;;;;;;5017092;28;20843;-67
2022/10/05 10:34:27;;;;;;;19.17;5.97;;;21.20;99.90;;;;;;5013477;28;20498;-66
2022/10/05 10:37:15;;;;;;;21.90;6.50;;;21.30;99.90;;;;;;5013957;28;20490;-67
2022/10/05 10:39:59;;;;;;;48.40;8.23;;;21.40;99.90;;;;;;5021657;28;20422;-67
2022/10/05 10:43:05;;;;;;;40.87;8.40;;;21.30;99.90;;;;;;5012797;28;20744;-67
2022/10/05 10:45:34;;;;;;;22.57;6.10;;;21.40;99.90;;;;;;5013419;28;20450;-67
2022/10/05 10:48:03;;;;;;;19.77;6.73;;;21.50;99.90;;;;;;5021184;28;20525;-67
2022/10/05 10:50:55;;;;;;;13.87;6.03;;;21.40;99.90;;;;;;5019640;28;20943;-67
2022/10/05 10:53:39;;;;;;;7.73;4.90;;;21.20;99.90;;;;;;5005731;28;20438;-67
2022/10/05 10:56:34;;;;;;;8.50;4.90;;;21.10;99.90;;;;;;5016014;28;20795;-68
2022/10/05 10:59:25;;;;;;;21.50;6.10;;;21.10;99.90;;;;;;5022188;28;20430;-68
2022/10/05 11:02:11;;;;;;;9.37;4.20;;;21.20;99.90;;;;;;5012913;28;20429;-68
2022/10/05 11:05:04;;;;;;;11.60;5.97;;;21.10;99.90;;;;;;5013593;28;20764;-67
2022/10/05 11:07:33;;;;;;;14.27;6.67;;;21.10;99.90;;;;;;5025804;28;20411;-69
2022/10/05 11:10:18;;;;;;;12.53;5.37;;;21.10;99.90;;;;;;5035913;28;20429;-67
2022/10/05 11:13:01;;;;;;;7.47;4.97;;;21.20;99.90;;;;;;5039551;28;20970;-68
2022/10/05 11:15:45;;;;;;;6.77;4.90;;;21.30;99.90;;;;;;5028319;28;20474;-67
2022/10/05 11:18:23;;;;;;;7.07;5.20;;;21.40;99.90;;;;;;5027336;28;20505;-67
2022/10/05 11:21:17;;;;;;;5.07;4.50;;;21.40;99.90;;;;;;5028005;28;20962;-67
2022/10/05 11:23:48;;;;;;;10.23;4.70;;;21.40;99.90;;;;;;5034826;28;20461;-67
2022/10/05 11:26:22;;;;;;;12.07;5.50;;;21.40;99.90;;;;;;5024163;28;20832;-67
2022/10/05 11:28:51;;;;;;;26.03;7.40;;;21.40;99.90;;;;;;5032373;28;20485;-67
2022/10/05 11:31:41;;;;;;;19.50;6.17;;;21.40;99.90;;;;;;5037097;28;20482;-69
2022/10/05 11:34:18;;;;;;;8.50;4.60;;;21.30;99.90;;;;;;5032708;28;20422;-68
2022/10/05 11:37:03;;;;;;;14.07;5.77;;;21.40;99.90;;;;;;5031767;28;20508;-68
2022/10/05 11:40:07;;;;;;;6.40;5.30;;;21.30;99.90;;;;;;5025784;28;20911;-67
2022/10/05 11:42:51;;;;;;;7.43;5.00;;;21.20;99.90;;;;;;5000596;28;20444;-67
2022/10/05 11:45:25;;;;;;;7.30;4.60;;;21.30;99.90;;;;;;5008642;28;20451;-68
2022/10/05 11:48:00;;;;;;;10.80;6.47;;;21.40;99.90;;;;;;5014755;28;20510;-67
2022/10/05 11:50:53;;;;;;;9.63;4.90;;;21.40;99.90;;;;;;5016384;28;20838;-67
2022/10/05 11:53:44;;;;;;;42.23;7.77;;;21.50;99.90;;;;;;5014192;28;20786;-68
2022/10/05 11:56:30;;;;;;;13.43;5.30;;;21.60;99.90;;;;;;5022100;28;20975;-68
2022/10/05 11:59:26;;;;;;;15.03;6.00;;;21.50;99.90;;;;;;5022480;28;20434;-69
2022/10/05 12:02:14;;;;;;;8.23;5.10;;;21.60;99.90;;;;;;5011375;28;20996;-69
2022/10/05 12:04:58;;;;;;;8.07;4.17;;;21.70;99.90;;;;;;5019840;28;20777;-68
2022/10/05 12:07:41;;;;;;;15.00;5.00;;;21.80;99.90;;;;;;5020581;28;20979;-70
2022/10/05 12:10:37;;;;;;;11.67;4.43;;;21.80;99.90;;;;;;5011950;28;20764;-67
2022/10/05 12:13:18;;;;;;;10.10;6.20;;;21.70;99.90;;;;;;5014141;28;20537;-69
2022/10/05 12:16:21;;;;;;;6.37;4.27;;;21.70;99.90;;;;;;5019774;28;20996;-70
2022/10/05 12:18:59;;;;;;;27.40;6.37;;;21.80;99.90;;;;;;5014310;28;20439;-69
2022/10/05 12:21:43;;;;;;;25.37;5.20;;;21.90;99.90;;;;;;5020843;28;20433;-68
2022/10/05 12:24:12;;;;;;;18.67;5.77;;;21.90;99.90;;;;;;5012221;28;20403;-70
2022/10/05 12:26:46;;;;;;;7.93;5.87;;;21.90;99.90;;;;;;5012547;28;20435;-68
2022/10/05 12:29:31;;;;;;;8.73;4.23;;;22.00;99.90;;;;;;5011516;28;20442;-69
2022/10/05 12:32:17;;;;;;;7.10;4.67;;;22.10;99.90;;;;;;5018740;28;20534;-69
2022/10/05 12:34:55;;;;;;;76.40;10.27;;;22.10;99.90;;;;;;5019284;28;20466;-69
2022/10/05 12:37:45;;;;;;;49.73;8.97;;;22.10;99.90;;;;;;5011778;28;20415;-70
2022/10/05 12:40:34;;;;;;;36.97;6.60;;;22.10;99.90;;;;;;5018770;28;20854;-69
2022/10/05 12:43:17;;;;;;;7.93;4.00;;;22.10;99.90;;;;;;5013902;28;20429;-69
2022/10/05 12:45:46;;;;;;;4.80;3.50;;;22.00;99.90;;;;;;5013215;28;20985;-68
2022/10/05 12:48:35;;;;;;;7.97;3.80;;;22.00;99.90;;;;;;5020293;28;20407;-68
2022/10/05 12:51:10;;;;;;;10.67;3.50;;;22.00;99.90;;;;;;5020676;28;20455;-68
2022/10/05 12:54:01;;;;;;;7.60;3.90;;;21.90;99.90;;;;;;5029969;28;20432;-70
2022/10/05 12:56:33;;;;;;;4.60;3.10;;;21.90;99.90;;;;;;5019304;28;20474;-69
2022/10/05 12:59:58;;;;;;;6.43;3.20;;;21.90;99.90;;;;;;5011383;28;20925;-68
2022/10/05 13:02:41;;;;;;;10.87;3.60;;;21.70;99.90;;;;;;4978276;28;20446;-68
2022/10/05 13:05:09;;;;;;;12.13;4.50;;;21.60;99.90;;;;;;5020067;28;20511;-68
2022/10/05 13:07:50;;;;;;;12.23;4.93;;;21.50;99.90;;;;;;5015223;28;20444;-69
2022/10/05 13:10:37;;;;;;;11.37;4.70;;;21.50;99.90;;;;;;5013135;28;20946;-68
2022/10/05 13:13:22;;;;;;;5.33;3.10;;;21.50;99.90;;;;;;5026447;28;20875;-69
2022/10/05 13:15:59;;;;;;;12.03;3.80;;;21.50;99.90;;;;;;5010765;28;20431;-69
2022/10/05 13:18:49;;;;;;;13.10;4.03;;;21.50;99.90;;;;;;5011031;28;20403;-69
2022/10/05 13:21:20;;;;;;;18.93;4.50;;;21.50;99.90;;;;;;5009361;28;20395;-69
2022/10/05 13:24:13;;;;;;;10.17;3.90;;;21.50;99.90;;;;;;5008907;28;20411;-68
2022/10/05 13:26:43;;;;;;;7.40;3.40;;;21.50;99.90;;;;;;5010694;28;20478;-69
2022/10/05 13:29:15;;;;;;;9.23;4.60;;;21.50;99.90;;;;;;5017974;28;20714;-68
2022/10/05 13:31:49;;;;;;;9.20;3.67;;;21.50;99.90;;;;;;5029336;28;20446;-68
2022/10/05 13:34:26;;;;;;;8.43;4.13;;;21.50;99.90;;;;;;5029807;28;20736;-69
2022/10/05 13:37:33;;;;;;;11.03;4.37;;;21.50;99.90;;;;;;5029963;28;21087;-69
2022/10/05 13:40:37;;;;;;;7.93;3.80;;;21.50;99.90;;;;;;5019909;28;20418;-67
2022/10/05 13:43:20;;;;;;;9.00;4.00;;;21.50;99.90;;;;;;5029733;28;20390;-69
2022/10/05 13:45:55;;;;;;;6.00;3.33;;;21.50;99.90;;;;;;5028855;28;20434;-68
2022/10/05 13:48:45;;;;;;;6.33;3.60;;;21.50;99.90;;;;;;5029243;28;20461;-69
2022/10/05 13:52:07;;;;;;;4.07;2.73;;;21.50;99.90;;;;;;5028555;28;20453;-68
2022/10/05 13:54:54;;;;;;;15.30;3.80;;;21.40;99.90;;;;;;4986839;28;20532;-69
2022/10/05 13:57:30;;;;;;;19.87;4.20;;;21.50;99.90;;;;;;4987879;28;20979;-68
2022/10/05 14:00:22;;;;;;;10.00;3.00;;;21.50;99.90;;;;;;4986907;28;20854;-68